Time;durP1;ratioP1;P1;durP2;ratioP2;P2;SDS_P1;SDS_P2;PMS_P1;PMS_P2;Temp;Humidity;BMP_temperature;BMP_pressure;BME280_temperature;BME280_humidity;BME280_pressure;Samples;Min_cycle;Max_cycle;Signal;HPM_P1;HPM_P2
2023/11/10 00:01:25;;;;;;;2.40;2.20;;;;;;;13.39;56.96;97536.88;6759201;29;20207;-86
2023/11/10 00:04:49;;;;;;;2.27;2.10;;;;;;;14.02;55.10;97520.72;6758289;29;20210;-87
2023/11/10 00:08:13;;;;;;;2.50;2.30;;;;;;;13.79;55.80;97513.72;6758435;29;20235;-86
2023/11/10 00:11:36;;;;;;;2.07;1.87;;;;;;;13.97;55.79;97523.38;6777302;29;20219;-86
2023/11/10 00:14:58;;;;;;;3.40;2.13;;;;;;;13.52;57.24;97526.44;6784371;29;20266;-86
2023/11/10 00:18:19;;;;;;;2.80;2.10;;;;;;;13.65;57.05;97525.22;6784318;29;20294;-86
2023/11/10 00:21:41;;;;;;;3.43;2.33;;;;;;;13.84;56.25;97486.69;6784075;29;20571;-86
2023/11/10 00:25:03;;;;;;;2.60;2.40;;;;;;;13.96;56.77;97510.91;6783448;29;20281;-86
2023/11/10 00:28:26;;;;;;;3.27;2.30;;;;;;;14.13;56.27;97512.41;6784118;29;20629;-86
2023/11/10 00:31:48;;;;;;;2.60;2.40;;;;;;;14.10;56.34;97504.00;6780327;29;20311;-86
2023/11/10 00:35:09;;;;;;;2.50;2.30;;;;;;;13.53;55.73;97367.53;6783283;29;20302;-87
2023/11/10 00:38:31;;;;;;;3.90;3.10;;;;;;;13.99;56.62;97486.81;6783781;29;20231;-86
2023/11/10 00:41:53;;;;;;;3.10;2.80;;;;;;;14.06;56.55;97483.91;6783283;29;20218;-86
2023/11/10 01:20:06;;;;;;;2.80;1.60;;;;;;;13.77;55.23;97429.22;6727858;29;20239;-86
2023/11/10 01:28:14;;;;;;;1.40;1.40;;;;;;;13.75;55.34;97449.50;6732359;29;20675;-86
2023/11/10 01:32:07;;;;;;;1.60;1.50;;;;;;;13.86;54.35;97437.69;6727584;29;20257;-86
2023/11/10 02:14:47;;;;;;;1.80;1.70;;;;;;;13.09;58.14;97402.03;6650697;29;20230;-87
2023/11/10 02:19:03;;;;;;;1.90;1.80;;;;;;;13.23;58.37;97400.53;6632408;29;20238;-87
2023/11/10 02:22:54;;;;;;;2.20;2.00;;;;;;;12.78;58.52;97345.13;6641521;29;20243;-86
2023/11/10 02:26:19;;;;;;;2.87;1.77;;;;;;;13.52;57.58;97384.84;6649146;29;20218;-86
2023/11/10 02:30:22;;;;;;;1.80;1.70;;;;;;;13.26;56.72;97315.31;6650949;29;20245;-86
2023/11/10 02:37:42;;;;;;;1.70;1.60;;;;;;;13.18;58.34;97383.44;6594750;30;20212;-85
2023/11/10 02:45:39;;;;;;;2.30;2.10;;;;;;;13.26;58.58;97383.78;6678986;29;20697;-86
2023/11/10 02:49:00;;;;;;;3.33;1.90;;;;;;;12.72;58.70;97279.34;6727718;29;20395;-85
2023/11/10 02:52:22;;;;;;;6.07;4.20;;;;;;;13.28;58.75;97362.69;6727218;29;20735;-85
2023/11/10 02:55:43;;;;;;;4.73;3.70;;;;;;;13.53;58.47;97352.09;6727028;29;20356;-84
2023/11/10 02:59:05;;;;;;;2.87;2.37;;;;;;;13.76;58.37;97370.66;6727343;29;20708;-85
2023/11/10 03:02:31;;;;;;;2.30;2.10;;;;;;;13.17;58.61;97317.66;6727166;29;20955;-86
2023/11/10 03:05:53;;;;;;;2.20;2.00;;;;;;;12.76;60.45;97331.84;6727515;29;20220;-85
2023/11/10 03:09:14;;;;;;;2.83;2.20;;;;;;;13.19;60.30;97371.53;6732200;29;20327;-85
2023/11/10 03:12:36;;;;;;;2.23;2.03;;;;;;;12.74;59.82;97298.84;6732159;29;20357;-85
2023/11/10 03:15:59;;;;;;;3.00;2.80;;;;;;;13.01;59.62;97306.97;6751668;29;20259;-85
2023/11/10 03:19:22;;;;;;;2.20;2.10;;;;;;;13.39;58.73;97341.97;6760696;29;20242;-85
2023/11/10 03:22:43;;;;;;;1.80;1.70;;;;;;;13.37;58.98;97374.69;6760978;29;20208;-85
2023/11/10 03:26:05;;;;;;;1.87;1.70;;;;;;;13.58;57.70;97362.16;6759287;29;20351;-85
2023/11/10 03:29:27;;;;;;;1.90;1.80;;;;;;;13.44;57.56;97355.53;6760355;29;20375;-86
2023/11/10 03:32:49;;;;;;;2.37;1.80;;;;;;;12.97;57.28;97254.44;6760466;29;20709;-85
2023/11/10 03:36:11;;;;;;;1.67;1.67;;;;;;;12.68;57.22;97261.19;6758961;29;20211;-86
2023/11/10 03:39:33;;;;;;;1.70;1.60;;;;;;;13.01;57.75;97290.75;6759189;29;20364;-87
2023/11/10 03:42:55;;;;;;;2.33;2.00;;;;;;;13.25;57.23;97321.78;6758454;29;20204;-86
2023/11/10 03:46:16;;;;;;;4.20;1.70;;;;;;;13.37;56.38;97350.34;6758725;29;20304;-87
2023/11/10 03:49:40;;;;;;;1.67;1.57;;;;;;;13.30;57.78;97349.75;6758858;29;20354;-86
2023/11/10 03:53:03;;;;;;;1.83;1.73;;;;;;;13.70;57.20;97373.63;6758967;29;20247;-87
2023/11/10 04:30:09;;;;;;;2.00;1.90;;;;;;;13.38;57.14;97359.25;6675622;29;20244;-87
2023/11/10 04:33:37;;;;;;;1.83;1.73;;;;;;;13.56;56.47;97338.03;6677382;29;20221;-87
2023/11/10 04:49:38;;;;;;;1.40;1.30;;;;;;;12.62;57.10;97363.06;6600255;29;20243;-86
2023/11/10 04:53:08;;;;;;;1.10;1.10;;;;;;;12.62;56.11;97297.38;6626932;29;20632;-86
2023/11/10 04:56:58;;;;;;;1.57;1.30;;;;;;;13.03;55.66;97329.16;6626631;29;20394;-86
2023/11/10 05:08:38;;;;;;;2.20;2.10;;;;;;;12.77;56.45;97367.81;6628072;29;20242;-87
2023/11/10 05:12:09;;;;;;;1.50;1.50;;;;;;;13.13;55.63;97386.09;6732834;29;20310;-87
2023/11/10 05:15:31;;;;;;;2.73;1.40;;;;;;;13.21;55.33;97388.34;6729471;29;20208;-86
2023/11/10 05:18:52;;;;;;;2.40;1.30;;;;;;;12.89;55.89;97390.13;6756239;29;20262;-87
2023/11/10 05:22:15;;;;;;;1.20;1.20;;;;;;;12.06;57.00;97338.28;6756036;29;20294;-86
2023/11/10 05:25:37;;;;;;;1.20;1.20;;;;;;;12.41;56.18;97312.53;6755095;29;20614;-87
2023/11/10 05:28:58;;;;;;;1.70;1.60;;;;;;;12.52;56.26;97352.13;6755406;29;20330;-86
2023/11/10 05:32:20;;;;;;;1.57;1.53;;;;;;;12.36;55.65;97276.53;6756331;29;20234;-86
2023/11/10 05:35:42;;;;;;;1.70;1.67;;;;;;;13.23;54.29;97397.03;6755287;29;20215;-87
2023/11/10 05:39:05;;;;;;;1.10;1.10;;;;;;;13.13;54.97;97415.84;6756246;29;20227;-85
2023/11/10 05:42:27;;;;;;;1.70;1.30;;;;;;;12.58;55.02;97353.00;6768019;29;20224;-87
2023/11/10 05:45:48;;;;;;;1.20;1.20;;;;;;;13.10;54.74;97384.72;6807502;29;20289;-85
2023/11/10 05:49:10;;;;;;;1.60;1.50;;;;;;;13.47;53.98;97398.34;6780836;29;20309;-86
2023/11/10 05:52:31;;;;;;;1.87;1.30;;;;;;;13.40;54.01;97373.38;6780862;29;20706;-86
2023/11/10 06:15:20;;;;;;;1.30;1.30;;;;;;;13.22;53.66;97436.78;7228498;23;20257;-89
2023/11/10 06:19:09;;;;;;;1.20;1.20;;;;;;;13.38;53.55;97433.19;6788346;29;20250;-88
2023/11/10 06:26:47;;;;;;;1.90;1.60;;;;;;;13.55;52.29;97438.47;6756922;29;20191;-84
2023/11/10 06:34:50;;;;;;;5.10;2.33;;;;;;;13.50;52.59;97433.00;6634834;29;20214;-88
2023/11/10 07:50:19;;;;;;;1.40;1.40;;;;;;;13.67;53.46;97477.03;7012351;23;20665;-86
2023/11/10 07:53:41;;;;;;;1.43;1.43;;;;;;;13.44;52.55;97428.63;6805515;29;20209;-86
2023/11/10 07:57:03;;;;;;;1.77;1.47;;;;;;;14.29;52.17;97483.56;6802114;29;20352;-86
2023/11/10 08:00:24;;;;;;;1.50;1.50;;;;;;;14.32;52.32;97481.16;6810236;29;20227;-85
2023/11/10 08:03:46;;;;;;;1.70;1.60;;;;;;;14.30;51.32;97477.06;6828494;29;20206;-86
2023/11/10 08:07:10;;;;;;;2.03;1.93;;;;;;;14.37;51.80;97473.06;6810975;29;20624;-85
2023/11/10 08:10:31;;;;;;;1.83;1.60;;;;;;;14.21;51.77;97479.44;6810411;29;20748;-86
2023/11/10 08:13:54;;;;;;;2.10;1.50;;;;;;;13.27;52.90;97395.44;6809302;29;20230;-86
2023/11/10 08:17:16;;;;;;;1.40;1.40;;;;;;;13.92;52.51;97477.28;6817147;29;20229;-86
2023/11/10 08:20:38;;;;;;;2.00;1.90;;;;;;;13.44;53.88;97499.00;6806621;29;20722;-86
2023/11/10 08:24:07;;;;;;;1.80;1.70;;;;;;;13.37;53.26;97428.00;6808702;29;20237;-84
2023/11/10 08:27:31;;;;;;;1.60;1.50;;;;;;;13.91;53.15;97491.88;6809677;29;20854;-85
2023/11/10 08:31:16;;;;;;;1.53;1.43;;;;;;;13.70;52.16;97409.63;6809882;29;20886;-85
2023/11/10 08:38:58;;;;;;;1.30;1.30;;;;;;;13.31;53.67;97515.66;6789942;29;20222;-84
2023/11/10 08:42:25;;;;;;;1.33;1.33;;;;;;;14.09;52.29;97507.78;6832451;29;20206;-86
2023/11/10 08:46:15;;;;;;;1.30;1.30;;;;;;;13.79;53.19;97518.31;6816350;29;20898;-85
2023/11/10 08:50:21;;;;;;;1.40;1.40;;;;;;;12.55;53.64;97373.25;6785688;29;20294;-85
2023/11/10 09:17:56;;;;;;;1.33;1.30;;;;;;;15.72;48.16;97516.28;6599235;30;20220;-85
2023/11/10 09:21:32;;;;;;;1.30;1.30;;;;;;;15.89;48.43;97512.25;6576260;30;20220;-86
2023/11/10 09:25:01;;;;;;;0.97;0.97;;;;;;;15.33;47.42;97380.13;6608142;29;20218;-86
2023/11/10 09:28:31;;;;;;;1.00;1.00;;;;;;;16.21;46.36;97496.47;6660524;29;20724;-85
2023/11/10 09:31:54;;;;;;;1.30;1.20;;;;;;;15.32;47.46;97369.50;6655401;29;20226;-85
2023/11/10 09:35:24;;;;;;;1.20;1.20;;;;;;;16.46;46.27;97431.19;6653540;29;20208;-86
2023/11/10 09:43:57;;;;;;;1.10;1.10;;;;;;;16.91;44.89;97514.63;6625431;29;20561;-87
2023/11/10 09:47:46;;;;;;;1.23;1.23;;;;;;;16.19;46.26;97515.00;6651645;29;20676;-86
2023/11/10 09:51:29;;;;;;;1.10;1.10;;;;;;;14.79;46.57;97410.59;6651184;29;20239;-87
2023/11/10 09:54:53;;;;;;;1.30;1.30;;;;;;;15.08;47.58;97504.09;6625780;29;20225;-86
2023/11/10 09:58:15;;;;;;;1.17;1.17;;;;;;;14.35;47.55;97361.34;6625872;29;20239;-86
2023/11/10 10:01:39;;;;;;;1.20;1.20;;;;;;;14.79;47.03;97397.03;6642963;29;20215;-86
2023/11/10 10:05:00;;;;;;;1.27;1.27;;;;;;;15.93;46.39;97486.13;6648107;29;20221;-86
2023/11/10 10:08:25;;;;;;;1.50;1.50;;;;;;;16.42;45.03;97489.16;6649856;29;20264;-86
2023/11/10 10:11:46;;;;;;;1.70;1.60;;;;;;;16.39;44.58;97441.56;6649546;29;20234;-86
2023/11/10 10:15:10;;;;;;;1.40;1.30;;;;;;;16.26;44.94;97424.94;6628630;29;20233;-86
2023/11/10 10:18:33;;;;;;;2.50;2.30;;;;;;;17.73;43.04;97477.53;6635572;29;20227;-86
2023/11/10 10:21:55;;;;;;;1.27;1.17;;;;;;;17.64;41.75;97484.66;6658555;29;20217;-87
2023/11/10 10:25:20;;;;;;;2.40;1.60;;;;;;;16.62;45.44;97481.78;6635588;29;20639;-85
2023/11/10 10:28:41;;;;;;;1.50;1.40;;;;;;;16.24;47.11;97495.13;6636152;29;20316;-85
2023/11/10 10:32:03;;;;;;;1.33;1.23;;;;;;;14.96;50.86;97424.78;6634048;29;20328;-84
2023/11/10 10:35:24;;;;;;;1.37;1.20;;;;;;;14.54;54.14;97498.13;6646720;29;20302;-82
2023/11/10 10:38:49;;;;;;;1.40;1.40;;;;;;;15.10;53.51;97500.03;6685573;29;20293;-83
2023/11/10 10:42:15;;;;;;;5.23;2.90;;;;;;;14.47;53.77;97483.16;6684319;29;20370;-82
2023/11/10 10:45:37;;;;;;;2.47;2.13;;;;;;;14.36;52.54;97476.00;6684058;29;20573;-86
2023/11/10 10:48:59;;;;;;;1.60;1.50;;;;;;;14.50;51.82;97467.16;6649607;29;20609;-81
2023/11/10 10:52:20;;;;;;;1.20;1.20;;;;;;;14.13;51.20;97469.06;6658952;29;20277;-85
2023/11/10 10:59:35;;;;;;;1.13;1.13;;;;;;;14.17;49.28;97394.25;6664274;29;20237;-84
2023/11/10 11:03:13;;;;;;;1.40;1.40;;;;;;;14.75;48.23;97406.81;6684859;29;20198;-84
2023/11/10 11:07:01;;;;;;;1.80;1.60;;;;;;;14.72;47.22;97353.06;6680858;29;20209;-86
2023/11/10 11:10:32;;;;;;;2.03;1.80;;;;;;;16.02;47.53;97448.34;6666132;29;20689;-84
2023/11/10 11:14:12;;;;;;;1.50;1.40;;;;;;;15.06;46.89;97460.94;6658290;29;20216;-86
2023/11/10 11:17:55;;;;;;;2.50;1.40;;;;;;;14.81;48.35;97451.88;6657087;29;20648;-85
2023/11/10 11:21:17;;;;;;;1.40;1.30;;;;;;;15.16;48.18;97457.44;6657264;29;20762;-85
2023/11/10 11:24:44;;;;;;;1.50;1.50;;;;;;;16.30;46.56;97451.34;6656844;29;20220;-86
2023/11/10 11:28:05;;;;;;;1.20;1.20;;;;;;;15.24;47.90;97386.31;6666941;29;20207;-87
2023/11/10 11:31:27;;;;;;;1.43;1.33;;;;;;;15.30;47.87;97380.66;6681787;29;20270;-88
2023/11/10 11:35:51;;;;;;;2.03;1.30;;;;;;;16.03;46.85;97407.31;6682114;29;20222;-87
2023/11/10 11:52:07;;;;;;;1.50;1.40;;;;;;;14.68;47.23;97428.75;6681838;29;20211;-86
2023/11/10 11:55:28;;;;;;;2.57;2.33;;;;;;;14.43;49.17;97427.78;6681661;29;20210;-87
2023/11/10 11:58:50;;;;;;;2.67;1.57;;;;;;;14.36;48.33;97340.44;6681956;29;20292;-86
2023/11/10 12:02:13;;;;;;;1.67;1.60;;;;;;;14.25;46.91;97293.50;6679937;29;20582;-86
2023/11/10 12:05:34;;;;;;;1.80;1.70;;;;;;;14.42;48.43;97366.50;6681004;29;20422;-87
2023/11/10 12:08:58;;;;;;;1.60;1.50;;;;;;;15.28;45.35;97316.84;6681783;29;20238;-87
2023/11/10 12:12:19;;;;;;;2.57;1.50;;;;;;;16.25;45.47;97405.13;6681179;29;20701;-87
2023/11/10 12:15:41;;;;;;;1.70;1.40;;;;;;;16.01;43.67;97368.72;6679459;29;20216;-87
2023/11/10 12:19:04;;;;;;;1.83;1.70;;;;;;;16.24;42.77;97397.22;6681124;29;20601;-87
2023/11/10 12:22:25;;;;;;;2.33;1.80;;;;;;;15.36;44.18;97300.00;6681189;29;20275;-87
2023/11/10 12:25:49;;;;;;;1.90;1.80;;;;;;;15.78;42.90;97407.34;6680476;29;20258;-87
2023/11/10 12:29:15;;;;;;;1.80;1.70;;;;;;;15.80;42.82;97407.06;6681247;29;20331;-87
2023/11/10 12:32:45;;;;;;;2.73;2.23;;;;;;;15.76;42.33;97401.34;6679692;29;20250;-87
2023/11/10 12:36:11;;;;;;;2.50;2.30;;;;;;;15.96;42.63;97392.38;6654207;29;20215;-87
2023/11/10 12:39:33;;;;;;;1.83;1.73;;;;;;;15.13;43.03;97376.53;6680997;29;20243;-86
2023/11/10 12:42:58;;;;;;;1.50;1.40;;;;;;;15.73;43.30;97399.19;6680808;29;20293;-87
2023/11/10 12:46:20;;;;;;;1.50;1.40;;;;;;;15.26;43.31;97343.41;6673741;29;20266;-87
2023/11/10 12:49:43;;;;;;;2.07;1.50;;;;;;;15.34;43.06;97304.91;6674991;29;20250;-87
2023/11/10 12:53:05;;;;;;;1.60;1.50;;;;;;;15.42;41.21;97309.78;6677159;29;20235;-87
2023/11/10 12:56:26;;;;;;;1.13;1.13;;;;;;;15.67;40.72;97304.34;6679952;29;20218;-86
2023/11/10 12:59:49;;;;;;;1.60;1.50;;;;;;;16.44;41.15;97414.34;6676652;29;20316;-87
2023/11/10 13:03:12;;;;;;;1.43;1.33;;;;;;;16.36;40.67;97433.94;6654954;29;20218;-86
2023/11/10 13:06:33;;;;;;;1.20;1.20;;;;;;;16.85;39.36;97431.34;6654026;29;20224;-87
2023/11/10 13:09:55;;;;;;;2.30;1.40;;;;;;;16.06;40.89;97395.06;6674256;29;20779;-87
2023/11/10 13:13:16;;;;;;;1.77;1.40;;;;;;;16.18;40.87;97418.19;6675355;29;20707;-87
2023/11/10 13:16:40;;;;;;;1.50;1.40;;;;;;;15.64;40.44;97323.91;6671341;29;20701;-87
2023/11/10 13:20:03;;;;;;;1.27;1.10;;;;;;;16.55;39.90;97417.84;6680194;29;20763;-87
2023/11/10 13:23:27;;;;;;;1.60;1.50;;;;;;;16.31;40.51;97423.06;6664719;29;20207;-87
2023/11/10 13:26:49;;;;;;;1.37;1.37;;;;;;;15.39;42.05;97421.69;6655143;29;20213;-87
2023/11/10 13:30:13;;;;;;;1.37;1.27;;;;;;;15.58;42.01;97422.81;6665002;29;20702;-86
2023/11/10 13:33:36;;;;;;;1.40;1.30;;;;;;;16.08;40.85;97417.38;6678984;29;20235;-86
2023/11/10 13:36:58;;;;;;;1.33;1.33;;;;;;;15.82;41.18;97415.75;6672868;29;20693;-84
2023/11/10 13:40:19;;;;;;;1.40;1.30;;;;;;;15.65;41.21;97409.75;6671694;29;20322;-87
2023/11/10 13:43:42;;;;;;;1.13;1.13;;;;;;;16.07;41.00;97418.44;6678785;29;20434;-86
2023/11/10 13:47:04;;;;;;;3.23;1.40;;;;;;;16.18;40.70;97420.06;6665790;29;20213;-86
2023/11/10 13:50:27;;;;;;;1.40;1.30;;;;;;;15.05;42.80;97383.28;6677352;29;20249;-87
2023/11/10 13:53:51;;;;;;;3.13;1.50;;;;;;;14.93;43.84;97426.13;6675662;29;20230;-85
2023/11/10 13:57:15;;;;;;;3.47;1.63;;;;;;;14.63;44.94;97415.16;6679479;29;20207;-86
2023/11/10 14:04:56;;;;;;;4.53;1.63;;;;;;;14.96;43.83;97384.91;6673353;29;20195;-87
2023/11/10 14:58:25;;;;;;;2.43;1.60;;;;;;;14.54;42.26;97266.75;6736643;29;20657;-87
2023/11/10 15:29:30;;;;;;;1.70;1.60;;;;;;;15.27;40.68;97383.88;7151849;23;20237;-82
2023/11/10 15:37:16;;;;;;;4.40;1.50;;;;;;;14.70;42.30;97394.03;6759159;29;20181;-89
2023/11/10 16:11:17;;;;;;;3.67;2.40;;;;;;;14.33;42.00;97368.09;7523923;23;20616;-87
2023/11/10 16:19:34;;;;;;;9.70;5.00;;;;;;;13.60;43.12;97295.84;6728050;29;20212;-89
2023/11/10 16:23:28;;;;;;;4.33;3.00;;;;;;;14.12;44.26;97429.47;6668101;29;20209;-89
2023/11/10 16:31:45;;;;;;;4.40;3.43;;;;;;;14.18;45.13;97431.16;6698011;29;20673;-89
2023/11/10 16:35:07;;;;;;;7.83;5.07;;;;;;;14.08;45.22;97416.69;6731437;29;20212;-83
2023/11/10 16:38:28;;;;;;;6.33;3.50;;;;;;;13.80;46.00;97430.59;6699875;29;20294;-91
2023/11/10 16:41:52;;;;;;;8.20;3.80;;;;;;;12.90;46.90;97324.13;6688796;29;20224;-90
2023/11/10 16:45:52;;;;;;;4.60;3.10;;;;;;;12.78;46.95;97296.44;6687433;29;20200;-91
2023/11/10 16:49:19;;;;;;;3.90;3.43;;;;;;;13.00;47.14;97335.94;6868177;23;20235;-92
2023/11/10 16:52:43;;;;;;;5.87;3.20;;;;;;;12.82;47.51;97355.19;6746495;29;20227;-91
2023/11/10 17:00:51;;;;;;;3.87;3.40;;;;;;;13.48;47.58;97432.44;6667688;29;20218;-89
2023/11/10 17:04:35;;;;;;;6.90;5.00;;;;;;;13.22;47.72;97436.00;6679826;29;20307;-87
2023/11/10 17:08:06;;;;;;;16.87;8.00;;;;;;;13.01;46.39;97310.50;6674781;29;20217;-90
2023/11/10 17:52:50;;;;;;;6.70;3.63;;;;;;;13.69;47.41;97428.88;6745112;29;20227;-90
2023/11/10 17:56:26;;;;;;;5.53;3.50;;;;;;;13.70;47.62;97412.34;6745622;29;20216;-87
2023/11/10 18:00:34;;;;;;;7.97;3.80;;;;;;;13.55;48.00;97405.97;6738297;29;20232;-87
2023/11/10 18:21:47;;;;;;;2.50;2.30;;;;;;;13.67;45.69;97402.03;6725629;29;20216;-87
2023/11/10 18:29:44;;;;;;;4.43;3.00;;;;;;;13.45;47.18;97395.88;6704026;29;20216;-88
2023/11/10 19:03:23;;;;;;;4.80;2.43;;;;;;;13.72;44.44;97380.41;6684517;29;20299;-88
